createdAt,value
2017-02-28T00:00:17.573Z,11.95
2017-02-28T00:01:28.015Z,12.07
2017-02-28T00:02:37.731Z,11.99
2017-02-28T00:03:48.874Z,12.02
2017-02-28T00:05:00.559Z,11.99
2017-02-28T00:06:09.955Z,11.96
2017-02-28T00:07:20.460Z,11.96
2017-02-28T00:08:29.450Z,12.02
2017-02-28T00:09:41.706Z,11.98
2017-02-28T00:10:53.870Z,11.98
2017-02-28T00:12:02.858Z,12.14
2017-02-28T00:13:14.733Z,11.95
2017-02-28T00:14:27.299Z,12.07
2017-02-28T00:15:36.544Z,11.91
2017-02-28T00:16:47.645Z,12.1
2017-02-28T00:17:57.695Z,12.12
2017-02-28T00:19:07.648Z,12.04
2017-02-28T00:20:19.529Z,12.05
2017-02-28T00:21:28.816Z,12.14
2017-02-28T00:22:40.954Z,12.16
2017-02-28T00:23:53.430Z,12.14
2017-02-28T00:25:02.566Z,12.12
2017-02-28T00:26:14.211Z,12.05
2017-02-28T00:27:26.794Z,12.13
2017-02-28T00:28:35.786Z,12.09
2017-02-28T00:29:47.683Z,12.09
2017-02-28T00:31:00.399Z,12.14
2017-02-28T00:32:09.701Z,12.09
2017-02-28T00:33:21.418Z,12.01
2017-02-28T00:34:33.843Z,12.04
2017-02-28T00:35:42.830Z,11.99
2017-02-28T00:36:54.813Z,11.9
2017-02-28T00:38:07.265Z,11.86
2017-02-28T00:39:16.279Z,11.85
2017-02-28T00:40:28.360Z,11.83
2017-02-28T00:41:40.893Z,11.94
2017-02-28T00:42:49.876Z,11.86
2017-02-28T00:44:01.839Z,11.8
2017-02-28T00:45:14.589Z,11.76
2017-02-28T00:46:23.592Z,11.85
2017-02-28T00:47:35.656Z,11.86
2017-02-28T00:48:47.941Z,11.82
2017-02-28T00:49:57.208Z,11.82
2017-02-28T00:51:09.006Z,11.86
2017-02-28T00:52:19.897Z,11.86
2017-02-28T00:53:28.871Z,11.91
2017-02-28T00:54:38.294Z,11.86
2017-02-28T00:55:47.592Z,11.94
2017-02-28T00:56:56.581Z,11.91
2017-02-28T00:58:05.967Z,11.95
2017-02-28T00:59:14.957Z,11.98
2017-02-28T01:00:23.961Z,12.02
2017-02-28T01:01:33.247Z,11.98
2017-02-28T01:02:42.234Z,11.99
2017-02-28T01:03:51.216Z,12.01
2017-02-28T01:05:00.292Z,12.01
2017-02-28T01:06:09.296Z,12.07
2017-02-28T01:07:18.585Z,12.1
2017-02-28T01:08:27.561Z,12.13
2017-02-28T01:09:36.565Z,12.13
2017-02-28T01:10:45.555Z,12.1
2017-02-28T01:11:54.639Z,12.19
2017-02-28T01:13:03.895Z,12.07
2017-02-28T01:14:12.902Z,12.1
2017-02-28T01:15:21.889Z,12.1
2017-02-28T01:16:30.978Z,12.17
2017-02-28T01:17:39.967Z,12.2
2017-02-28T01:18:49.261Z,12.24
2017-02-28T01:19:58.240Z,12.16
2017-02-28T01:21:07.253Z,12.32
2017-02-28T01:22:16.241Z,12.2
2017-02-28T01:23:25.244Z,12.2
2017-02-28T01:24:34.529Z,12.35
2017-02-28T01:25:43.525Z,12.35
2017-02-28T01:26:52.516Z,12.32
2017-02-28T01:28:01.584Z,12.38
2017-02-28T01:29:10.567Z,12.37
2017-02-28T01:30:19.865Z,12.38
2017-02-28T01:31:29.246Z,12.37
2017-02-28T01:32:38.326Z,12.47
2017-02-28T01:33:47.321Z,12.47
2017-02-28T01:34:56.313Z,12.53
2017-02-28T01:36:05.692Z,12.56
2017-02-28T01:37:14.669Z,12.62
2017-02-28T01:38:23.736Z,12.59
2017-02-28T01:39:32.739Z,12.56
2017-02-28T01:40:41.822Z,12.7
2017-02-28T01:41:51.071Z,12.65
2017-02-28T01:43:00.054Z,12.71
2017-02-28T01:44:09.032Z,12.64
2017-02-28T01:45:18.211Z,12.72
2017-02-28T01:46:27.209Z,12.72
2017-02-28T01:47:37.105Z,12.71
2017-02-28T01:48:46.503Z,12.71
2017-02-28T01:49:55.487Z,12.68
2017-02-28T01:51:04.508Z,12.71
2017-02-28T01:52:13.506Z,12.72
2017-02-28T01:53:22.980Z,12.87
2017-02-28T01:54:31.964Z,12.72
2017-02-28T01:55:41.054Z,12.74
2017-02-28T01:56:50.042Z,12.85
2017-02-28T01:57:59.030Z,12.86
2017-02-28T01:59:08.317Z,12.89
2017-02-28T02:00:17.317Z,12.89
2017-02-28T02:01:26.295Z,12.82
2017-02-28T02:02:35.299Z,12.82
2017-02-28T02:03:44.286Z,12.85
2017-02-28T02:04:53.934Z,12.89
2017-02-28T02:06:02.930Z,12.85
2017-02-28T02:07:11.944Z,12.9
2017-02-28T02:08:21.360Z,12.86
2017-02-28T02:09:30.355Z,12.89
2017-02-28T02:10:39.643Z,12.87
2017-02-28T02:11:48.641Z,12.89
2017-02-28T02:12:57.636Z,12.89
2017-02-28T02:14:06.630Z,12.89
2017-02-28T02:15:15.615Z,12.89
2017-02-28T02:16:25.416Z,12.9
2017-02-28T02:17:34.412Z,12.86
2017-02-28T02:18:43.396Z,12.82
2017-02-28T02:19:52.397Z,12.85
2017-02-28T02:21:01.386Z,12.72
2017-02-28T02:22:11.091Z,12.7
2017-02-28T02:23:20.178Z,12.7
2017-02-28T02:24:29.589Z,12.77
2017-02-28T02:25:38.581Z,12.72
2017-02-28T02:26:47.655Z,12.71
2017-02-28T02:27:56.887Z,12.72
2017-02-28T02:29:05.892Z,12.68
2017-02-28T02:30:14.974Z,12.67
2017-02-28T02:31:23.974Z,12.67
2017-02-28T02:32:32.965Z,12.68
2017-02-28T02:33:42.194Z,12.6
2017-02-28T02:34:51.200Z,12.56
2017-02-28T02:36:00.270Z,12.53
2017-02-28T02:37:09.247Z,12.59
2017-02-28T02:38:18.230Z,12.59
2017-02-28T02:39:27.514Z,12.57
2017-02-28T02:40:36.497Z,12.62
2017-02-28T02:41:45.502Z,12.54
2017-02-28T02:42:54.578Z,12.57
2017-02-28T02:44:03.564Z,12.52
2017-02-28T02:45:12.884Z,12.47
2017-02-28T02:46:21.989Z,12.47
2017-02-28T02:47:30.985Z,12.52
2017-02-28T02:48:39.965Z,12.49
2017-02-28T02:49:48.961Z,12.46
2017-02-28T02:50:58.200Z,12.42
2017-02-28T02:52:07.182Z,12.41
2017-02-28T02:53:16.177Z,12.38
2017-02-28T02:54:25.165Z,12.38
2017-02-28T02:55:34.192Z,12.42
2017-02-28T02:56:43.430Z,12.34
2017-02-28T02:57:52.440Z,12.31
2017-02-28T02:59:01.922Z,12.37
2017-02-28T03:00:10.930Z,12.31
2017-02-28T03:01:19.928Z,12.35
2017-02-28T03:02:29.212Z,12.37
2017-02-28T03:03:38.289Z,12.28
2017-02-28T03:04:47.289Z,12.37
2017-02-28T03:05:56.391Z,12.31
2017-02-28T03:07:05.374Z,12.35
2017-02-28T03:08:14.656Z,12.23
2017-02-28T03:09:23.637Z,12.24
2017-02-28T03:10:32.629Z,12.2
2017-02-28T03:11:41.626Z,12.23
2017-02-28T03:12:50.621Z,12.2
2017-02-28T03:13:59.926Z,12.19
2017-02-28T03:15:08.924Z,12.19
2017-02-28T03:16:17.920Z,12.21
2017-02-28T03:17:27.355Z,12.21
2017-02-28T03:18:36.339Z,12.12
2017-02-28T03:19:45.975Z,12.21
2017-02-28T03:20:54.949Z,12.21
2017-02-28T03:22:03.926Z,12.16
2017-02-28T03:23:12.919Z,12.2
2017-02-28T03:24:22.313Z,12.2
2017-02-28T03:25:31.550Z,12.2
2017-02-28T03:26:40.544Z,12.21
2017-02-28T03:27:49.553Z,12.2
2017-02-28T03:28:58.567Z,12.23
2017-02-28T03:30:07.952Z,12.21
2017-02-28T03:31:17.348Z,12.12
2017-02-28T03:32:26.325Z,12.13
2017-02-28T03:33:35.302Z,12.12
2017-02-28T03:34:44.297Z,12.19
2017-02-28T03:35:53.271Z,12.04
2017-02-28T03:37:02.652Z,12.05
2017-02-28T03:38:11.647Z,12.17
2017-02-28T03:39:20.668Z,12.1
2017-02-28T03:40:29.664Z,12.14
2017-02-28T03:41:39.081Z,12.13
2017-02-28T03:42:48.366Z,12.09
2017-02-28T03:43:57.355Z,12.1
2017-02-28T03:45:06.342Z,12.12
2017-02-28T03:46:15.840Z,12.16
2017-02-28T03:47:24.841Z,12.05
2017-02-28T03:48:34.088Z,12.14
2017-02-28T03:49:43.177Z,12.1
2017-02-28T03:50:52.169Z,12.02
2017-02-28T03:52:01.165Z,12.09
2017-02-28T03:53:10.153Z,12.12
2017-02-28T03:54:19.428Z,12.09
2017-02-28T03:55:28.419Z,12.1
2017-02-28T03:56:37.398Z,12.07
2017-02-28T03:57:46.394Z,12.14
2017-02-28T03:58:55.376Z,12.13
2017-02-28T04:00:04.784Z,12.14
2017-02-28T04:01:13.800Z,11.99
2017-02-28T04:02:22.782Z,12.07
2017-02-28T04:03:31.776Z,12.14
2017-02-28T04:04:40.767Z,11.99
2017-02-28T04:05:50.057Z,12.01
2017-02-28T04:06:59.140Z,12.07
2017-02-28T04:08:08.121Z,12.12
2017-02-28T04:09:17.104Z,12.1
2017-02-28T04:10:26.102Z,11.98
2017-02-28T04:11:35.393Z,11.95
2017-02-28T04:12:44.376Z,11.96
2017-02-28T04:13:53.448Z,12.04
2017-02-28T04:15:02.451Z,11.95
2017-02-28T04:16:11.430Z,11.94
2017-02-28T04:17:20.795Z,11.94
2017-02-28T04:18:29.800Z,11.95
2017-02-28T04:19:38.782Z,12.13
2017-02-28T04:20:47.798Z,12.07
2017-02-28T04:21:56.780Z,12.12
2017-02-28T04:23:06.557Z,11.98
2017-02-28T04:24:15.547Z,11.98
2017-02-28T04:25:24.955Z,11.96
2017-02-28T04:26:34.037Z,11.95
2017-02-28T04:27:43.021Z,11.96
2017-02-28T04:28:52.258Z,11.98
2017-02-28T04:30:01.247Z,11.98
2017-02-28T04:31:10.238Z,12.12
2017-02-28T04:32:19.240Z,12.13
2017-02-28T04:33:28.221Z,12.12
2017-02-28T04:34:37.218Z,12.1
2017-02-28T04:35:46.216Z,12.09
2017-02-28T04:36:55.206Z,12.1
2017-02-28T04:38:04.188Z,12.07
2017-02-28T04:39:13.509Z,12.1
2017-02-28T04:40:22.497Z,12.1
2017-02-28T04:41:31.499Z,11.96
2017-02-28T04:42:40.496Z,11.99
2017-02-28T04:43:49.490Z,11.95
2017-02-28T04:44:58.803Z,11.96
2017-02-28T04:46:07.900Z,11.9
2017-02-28T04:47:16.896Z,11.99
2017-02-28T04:48:25.876Z,11.96
2017-02-28T04:49:35.370Z,11.94
2017-02-28T04:50:44.663Z,11.96
2017-02-28T04:51:53.660Z,11.94
2017-02-28T04:53:02.652Z,11.96
2017-02-28T04:54:11.628Z,11.91
2017-02-28T04:55:20.631Z,12.01
2017-02-28T04:56:30.000Z,11.9
2017-02-28T04:57:38.993Z,11.95
2017-02-28T04:58:48.184Z,12.01
2017-02-28T04:59:57.186Z,11.91
2017-02-28T05:01:06.592Z,11.9
2017-02-28T05:02:15.877Z,11.91
2017-02-28T05:03:24.883Z,11.99
2017-02-28T05:04:33.890Z,11.94
2017-02-28T05:05:42.889Z,11.91
2017-02-28T05:06:51.936Z,11.94
2017-02-28T05:08:01.217Z,11.94
2017-02-28T05:09:10.238Z,11.88
2017-02-28T05:10:19.322Z,11.83
2017-02-28T05:11:28.332Z,11.9
2017-02-28T05:12:37.319Z,11.94
2017-02-28T05:13:46.543Z,11.85
2017-02-28T05:14:55.546Z,11.88
2017-02-28T05:16:04.541Z,11.8
2017-02-28T05:17:13.536Z,11.86
2017-02-28T05:18:22.655Z,11.83
2017-02-28T05:19:31.945Z,11.9
2017-02-28T05:20:40.935Z,11.83
2017-02-28T05:21:49.936Z,11.85
2017-02-28T05:22:58.943Z,11.82
2017-02-28T05:24:07.936Z,11.8
2017-02-28T05:25:17.196Z,11.79
2017-02-28T05:26:26.905Z,11.79
2017-02-28T05:27:36.944Z,11.78
2017-02-28T05:28:48.536Z,11.76
2017-02-28T05:29:58.970Z,11.88
2017-02-28T05:31:08.276Z,11.83
2017-02-28T05:32:20.007Z,11.88
2017-02-28T05:33:29.562Z,11.83
2017-02-28T05:34:40.986Z,11.78
2017-02-28T05:35:53.341Z,11.75
2017-02-28T05:37:02.748Z,11.78
2017-02-28T05:38:14.488Z,11.78
2017-02-28T05:39:26.959Z,11.73
2017-02-28T05:40:35.934Z,11.73
2017-02-28T05:41:47.781Z,11.72
2017-02-28T05:42:59.980Z,11.75
2017-02-28T05:44:09.528Z,11.7
2017-02-28T05:45:21.099Z,11.76
2017-02-28T05:46:33.600Z,11.7
2017-02-28T05:47:42.742Z,11.76
2017-02-28T05:48:54.775Z,11.69
2017-02-28T05:50:07.091Z,11.72
2017-02-28T05:51:16.069Z,11.76
2017-02-28T05:52:28.373Z,11.73
2017-02-28T05:53:40.637Z,11.76
2017-02-28T05:54:49.881Z,11.78
2017-02-28T05:56:01.630Z,11.76
2017-02-28T05:57:14.109Z,11.76
2017-02-28T05:58:23.372Z,11.76
2017-02-28T05:59:35.354Z,11.88
2017-02-28T06:00:47.786Z,11.78
2017-02-28T06:01:56.771Z,11.8
2017-02-28T06:03:09.048Z,11.85
2017-02-28T06:04:21.345Z,11.86
2017-02-28T06:05:30.331Z,11.85
2017-02-28T06:06:42.517Z,11.79
2017-02-28T06:07:54.754Z,11.83
2017-02-28T06:09:03.772Z,11.8
2017-02-28T06:10:15.818Z,11.82
2017-02-28T06:11:28.447Z,11.83
2017-02-28T06:12:37.732Z,11.8
2017-02-28T06:13:49.326Z,11.86
2017-02-28T06:15:02.019Z,11.86
2017-02-28T06:16:11.010Z,11.8
2017-02-28T06:17:22.438Z,11.82
2017-02-28T06:18:33.317Z,11.86
2017-02-28T06:19:42.740Z,11.8
2017-02-28T06:20:55.117Z,11.85
2017-02-28T06:22:04.104Z,11.83
2017-02-28T06:23:15.789Z,11.88
2017-02-28T06:24:27.840Z,11.88
2017-02-28T06:25:36.916Z,11.9
2017-02-28T06:26:49.458Z,11.79
2017-02-28T06:28:01.361Z,11.82
2017-02-28T06:29:10.343Z,11.85
2017-02-28T06:30:22.460Z,11.86
2017-02-28T06:31:34.627Z,11.8
2017-02-28T06:32:43.604Z,11.78
2017-02-28T06:33:55.936Z,11.83
2017-02-28T06:35:08.510Z,11.86
2017-02-28T06:36:17.905Z,11.86
2017-02-28T06:37:29.372Z,11.76
2017-02-28T06:38:39.925Z,11.83
2017-02-28T06:39:49.006Z,11.85
2017-02-28T06:41:01.164Z,11.79
2017-02-28T06:42:10.447Z,11.79
2017-02-28T06:43:21.811Z,11.79
2017-02-28T06:44:34.374Z,11.8
2017-02-28T06:45:43.408Z,11.75
2017-02-28T06:46:55.415Z,11.69
2017-02-28T06:48:07.941Z,11.7
2017-02-28T06:49:17.052Z,11.69
2017-02-28T06:50:29.229Z,11.69
2017-02-28T06:51:40.029Z,11.75
2017-02-28T06:52:49.033Z,11.67
2017-02-28T06:53:58.367Z,11.67
2017-02-28T06:55:07.351Z,11.67
2017-02-28T06:56:16.361Z,11.67
2017-02-28T06:57:25.339Z,11.69
2017-02-28T06:58:34.723Z,11.64
2017-02-28T06:59:44.004Z,11.65
2017-02-28T07:00:52.982Z,11.75
2017-02-28T07:02:02.061Z,11.65
2017-02-28T07:03:11.073Z,11.7
2017-02-28T07:04:20.474Z,11.62
2017-02-28T07:05:29.756Z,11.65
2017-02-28T07:06:38.774Z,11.65
2017-02-28T07:07:47.757Z,11.72
2017-02-28T07:08:56.734Z,11.69
2017-02-28T07:10:05.738Z,11.62
2017-02-28T07:11:14.973Z,11.61
2017-02-28T07:12:23.992Z,11.46
2017-02-28T07:13:33.071Z,11.52
2017-02-28T07:14:42.059Z,11.49
2017-02-28T07:15:51.062Z,11.55
2017-02-28T07:17:00.343Z,11.51
2017-02-28T07:18:09.755Z,11.44
2017-02-28T07:19:18.764Z,11.49
2017-02-28T07:20:27.765Z,11.35
2017-02-28T07:21:37.254Z,11.37
2017-02-28T07:22:46.549Z,11.33
2017-02-28T07:23:55.629Z,11.4
2017-02-28T07:25:04.608Z,11.36
2017-02-28T07:26:13.594Z,11.44
2017-02-28T07:27:22.574Z,11.35
2017-02-28T07:28:31.843Z,11.33
2017-02-28T07:29:40.821Z,11.29
2017-02-28T07:30:49.917Z,11.29
2017-02-28T07:31:58.937Z,11.36
2017-02-28T07:33:07.916Z,11.37
2017-02-28T07:34:17.235Z,11.35
2017-02-28T07:35:26.684Z,11.32
2017-02-28T07:36:35.767Z,11.36
2017-02-28T07:37:46.134Z,11.39
2017-02-28T07:38:59.264Z,11.35
2017-02-28T07:40:10.008Z,11.29
2017-02-28T07:41:19.011Z,11.27
2017-02-28T07:42:28.000Z,11.32
2017-02-28T07:43:37.404Z,11.36
2017-02-28T07:44:46.403Z,11.29
2017-02-28T07:45:55.685Z,11.25
2017-02-28T07:47:04.675Z,11.21
2017-02-28T07:48:13.670Z,11.22
2017-02-28T07:49:22.642Z,11.15
2017-02-28T07:50:31.647Z,11.22
2017-02-28T07:51:40.930Z,11.18
2017-02-28T07:52:49.918Z,11.22
2017-02-28T07:53:58.917Z,11.11
2017-02-28T07:55:07.905Z,11.15
2017-02-28T07:56:16.907Z,11.19
2017-02-28T07:57:26.301Z,11.17
2017-02-28T07:58:35.309Z,11.18
2017-02-28T07:59:44.294Z,11.04
2017-02-28T08:00:53.284Z,11.14
2017-02-28T08:02:02.375Z,11.11
2017-02-28T08:03:11.688Z,11.07
2017-02-28T08:04:20.666Z,10.96
2017-02-28T08:05:29.663Z,11
2017-02-28T08:06:38.655Z,11.1
2017-02-28T08:07:47.650Z,11.02
2017-02-28T08:08:56.883Z,11.02
2017-02-28T08:10:06.372Z,11.02
2017-02-28T08:11:15.360Z,11.04
2017-02-28T08:12:24.851Z,10.97
2017-02-28T08:13:33.833Z,10.99
2017-02-28T08:14:43.196Z,11
2017-02-28T08:15:52.173Z,11
2017-02-28T08:17:01.238Z,10.97
2017-02-28T08:18:10.238Z,11.04
2017-02-28T08:19:20.090Z,11.04
2017-02-28T08:20:30.596Z,11.07
2017-02-28T08:21:39.571Z,11.07
2017-02-28T08:22:48.553Z,11.11
2017-02-28T08:23:57.534Z,11.09
2017-02-28T08:25:06.653Z,11.15
2017-02-28T08:26:16.005Z,11.11
2017-02-28T08:27:25.189Z,11.02
2017-02-28T08:28:34.164Z,11.07
2017-02-28T08:29:43.282Z,11.07
2017-02-28T08:30:52.861Z,11.11
2017-02-28T08:32:02.927Z,11.11
2017-02-28T08:33:11.958Z,11.07
2017-02-28T08:34:20.971Z,11.04
2017-02-28T08:35:29.972Z,11.09
2017-02-28T08:36:39.337Z,11.03
2017-02-28T08:37:49.078Z,10.99
2017-02-28T08:38:58.148Z,11.07
2017-02-28T08:40:10.895Z,11.14
2017-02-28T08:41:25.060Z,11.07
2017-02-28T08:42:40.777Z,11.07
2017-02-28T08:43:53.773Z,11.03
2017-02-28T08:45:04.590Z,11.11
2017-02-28T08:46:13.996Z,11.06
2017-02-28T08:47:23.143Z,11.18
2017-02-28T08:48:32.544Z,11.06
2017-02-28T08:49:42.039Z,11.1
2017-02-28T08:50:51.120Z,11.04
2017-02-28T08:52:00.508Z,11.1
2017-02-28T08:53:09.506Z,11.11
2017-02-28T08:54:18.785Z,11.11
2017-02-28T08:55:27.768Z,11.15
2017-02-28T08:56:36.758Z,11.06
2017-02-28T08:57:46.157Z,11.06
2017-02-28T08:58:55.155Z,11.07
2017-02-28T09:00:04.447Z,11.09
2017-02-28T09:01:13.528Z,11.1
2017-02-28T09:02:22.953Z,11.09
2017-02-28T09:03:31.967Z,11.15
2017-02-28T09:04:40.939Z,11.22
2017-02-28T09:05:50.243Z,11.22
2017-02-28T09:06:59.241Z,11.17
2017-02-28T09:08:08.225Z,11.19
2017-02-28T09:09:17.238Z,11.19
2017-02-28T09:10:26.262Z,11.22
2017-02-28T09:11:35.566Z,11.22
2017-02-28T09:12:44.557Z,11.22
2017-02-28T09:13:53.535Z,11.19
2017-02-28T09:15:02.533Z,11.15
2017-02-28T09:16:11.928Z,11.14
2017-02-28T09:17:21.206Z,11.09
2017-02-28T09:18:30.191Z,11.22
2017-02-28T09:19:39.201Z,11.18
2017-02-28T09:20:48.190Z,11.14
2017-02-28T09:21:57.180Z,11.11
2017-02-28T09:23:06.621Z,11.18
2017-02-28T09:24:15.600Z,11.19
2017-02-28T09:25:24.624Z,11.15
2017-02-28T09:26:33.613Z,11.22
2017-02-28T09:27:42.594Z,11.21
2017-02-28T09:28:51.923Z,11.21
2017-02-28T09:30:01.083Z,11.24
2017-02-28T09:31:10.160Z,11.21
2017-02-28T09:32:19.146Z,11.24
2017-02-28T09:33:28.126Z,11.28
2017-02-28T09:34:37.425Z,11.17
2017-02-28T09:35:46.429Z,11.18
2017-02-28T09:36:55.433Z,11.21
2017-02-28T09:38:04.413Z,11.15
2017-02-28T09:39:13.812Z,11.27
2017-02-28T09:40:23.040Z,11.14
2017-02-28T09:41:32.532Z,11.21
2017-02-28T09:42:41.510Z,11.11
2017-02-28T09:43:50.600Z,11.22
2017-02-28T09:45:00.027Z,11.14
2017-02-28T09:46:10.184Z,11.14
2017-02-28T09:47:19.196Z,11.24
2017-02-28T09:48:28.415Z,11.22
2017-02-28T09:49:37.780Z,11.27
2017-02-28T09:50:46.767Z,11.32
2017-02-28T09:51:56.055Z,11.29
2017-02-28T09:53:05.048Z,11.36
2017-02-28T09:54:14.148Z,11.15
2017-02-28T09:55:23.128Z,11.11
2017-02-28T09:56:32.209Z,11.19
2017-02-28T09:57:41.505Z,11.22
2017-02-28T09:58:50.519Z,11.22
2017-02-28T09:59:59.505Z,11.29
2017-02-28T10:01:08.492Z,11.24
2017-02-28T10:02:18.125Z,11.29
2017-02-28T10:03:29.044Z,11.33
2017-02-28T10:04:38.028Z,11.25
2017-02-28T10:05:47.034Z,11.29
2017-02-28T10:06:56.478Z,11.32
2017-02-28T10:08:06.096Z,11.37
2017-02-28T10:09:15.383Z,11.35
2017-02-28T10:10:24.376Z,11.29
2017-02-28T10:11:33.355Z,11.29
2017-02-28T10:12:42.419Z,11.28
2017-02-28T10:13:51.515Z,11.25
2017-02-28T10:15:01.652Z,11.32
2017-02-28T10:16:10.629Z,11.33
2017-02-28T10:17:19.621Z,11.36
2017-02-28T10:18:29.343Z,11.39
2017-02-28T10:19:38.417Z,11.29
2017-02-28T10:20:47.733Z,11.36
2017-02-28T10:21:56.752Z,11.33
2017-02-28T10:23:05.852Z,11.27
2017-02-28T10:24:14.831Z,11.22
2017-02-28T10:25:23.813Z,11.32
2017-02-28T10:26:33.054Z,11.24
2017-02-28T10:27:42.055Z,11.28
2017-02-28T10:28:51.035Z,11.24
2017-02-28T10:30:00.035Z,11.15
2017-02-28T10:31:09.041Z,11.21
2017-02-28T10:32:18.725Z,11.22
2017-02-28T10:33:27.704Z,11.19
2017-02-28T10:34:36.698Z,11.24
2017-02-28T10:35:45.698Z,11.22
2017-02-28T10:36:55.079Z,11.33
2017-02-28T10:38:04.395Z,11.32
2017-02-28T10:39:13.500Z,11.33
2017-02-28T10:40:22.504Z,11.29
2017-02-28T10:41:31.495Z,11.32
2017-02-28T10:42:40.482Z,11.27
2017-02-28T10:43:49.795Z,11.28
2017-02-28T10:44:58.870Z,11.27
2017-02-28T10:46:07.956Z,11.32
2017-02-28T10:47:17.058Z,11.37
2017-02-28T10:48:26.053Z,11.43
2017-02-28T10:49:35.333Z,11.35
2017-02-28T10:50:44.320Z,11.33
2017-02-28T10:51:53.400Z,11.37
2017-02-28T10:53:02.801Z,11.35
2017-02-28T10:54:11.811Z,11.37
2017-02-28T10:55:21.215Z,11.37
2017-02-28T10:56:30.217Z,11.36
2017-02-28T10:57:39.245Z,11.32
2017-02-28T10:58:48.316Z,11.44
2017-02-28T10:59:57.735Z,11.47
2017-02-28T11:01:07.056Z,11.51
2017-02-28T11:02:16.039Z,11.51
2017-02-28T11:03:25.018Z,11.46
2017-02-28T11:04:34.008Z,11.44
2017-02-28T11:05:43.815Z,11.54
2017-02-28T11:06:53.098Z,11.58
2017-02-28T11:08:02.165Z,11.67
2017-02-28T11:09:11.187Z,11.58
2017-02-28T11:10:20.168Z,11.62
2017-02-28T11:11:29.175Z,11.57
2017-02-28T11:12:38.473Z,11.46
2017-02-28T11:13:47.558Z,11.43
2017-02-28T11:14:56.996Z,11.35
2017-02-28T11:16:06.388Z,11.4
2017-02-28T11:17:15.367Z,11.37
2017-02-28T11:18:24.611Z,11.29
2017-02-28T11:19:33.639Z,11.27
2017-02-28T11:20:42.628Z,11.37
2017-02-28T11:21:51.621Z,11.39
2017-02-28T11:23:00.693Z,11.36
2017-02-28T11:24:10.045Z,11.46
2017-02-28T11:25:19.050Z,11.51
2017-02-28T11:26:28.037Z,11.47
2017-02-28T11:27:37.032Z,11.52
2017-02-28T11:28:46.025Z,11.67
2017-02-28T11:29:55.330Z,11.69
2017-02-28T11:31:04.329Z,11.8
2017-02-28T11:32:13.330Z,11.86
2017-02-28T11:33:22.307Z,11.85
2017-02-28T11:34:31.311Z,11.96
2017-02-28T11:35:40.595Z,11.96
2017-02-28T11:36:49.668Z,12.01
2017-02-28T11:37:58.669Z,11.99
2017-02-28T11:39:07.669Z,12.13
2017-02-28T11:40:16.691Z,12.12
2017-02-28T11:41:25.966Z,12.07
2017-02-28T11:42:34.993Z,11.99
2017-02-28T11:43:43.976Z,12.1
2017-02-28T11:44:53.389Z,11.96
2017-02-28T11:46:02.370Z,11.94
2017-02-28T11:47:12.054Z,11.96
2017-02-28T11:48:21.133Z,11.94
2017-02-28T11:49:30.114Z,11.99
2017-02-28T11:50:39.117Z,11.98
2017-02-28T11:51:48.510Z,12.07
2017-02-28T11:52:58.149Z,11.99
2017-02-28T11:54:07.124Z,11.98
2017-02-28T11:55:16.123Z,11.96
2017-02-28T11:56:25.138Z,11.95
2017-02-28T11:57:34.113Z,11.95
2017-02-28T11:58:43.820Z,11.96
2017-02-28T11:59:52.811Z,11.98
2017-02-28T12:01:01.794Z,11.91
2017-02-28T12:02:11.211Z,11.83
2017-02-28T12:03:20.188Z,11.86
2017-02-28T12:04:29.567Z,11.82
2017-02-28T12:05:38.955Z,11.88
2017-02-28T12:06:47.954Z,11.82
2017-02-28T12:07:56.952Z,11.86
2017-02-28T12:09:06.027Z,11.83
2017-02-28T12:10:15.409Z,11.8
2017-02-28T12:11:24.806Z,11.79
2017-02-28T12:12:33.806Z,11.78
2017-02-28T12:13:42.888Z,11.85
2017-02-28T12:14:51.965Z,11.9
2017-02-28T12:16:01.249Z,11.86
2017-02-28T12:17:10.227Z,11.9
2017-02-28T12:18:19.221Z,11.95
2017-02-28T12:19:28.202Z,11.98
2017-02-28T12:20:37.203Z,11.85
2017-02-28T12:21:46.595Z,11.88
2017-02-28T12:22:55.670Z,11.82
2017-02-28T12:24:04.665Z,11.94
2017-02-28T12:25:13.648Z,11.99
2017-02-28T12:26:22.644Z,12.01
2017-02-28T12:27:31.930Z,12.1
2017-02-28T12:28:40.930Z,12.07
2017-02-28T12:29:49.933Z,12.1
2017-02-28T12:30:58.921Z,12.09
2017-02-28T12:32:07.996Z,11.98
2017-02-28T12:33:17.378Z,12.02
2017-02-28T12:34:26.374Z,12.09
2017-02-28T12:35:35.781Z,12.07
2017-02-28T12:36:44.773Z,12.1
2017-02-28T12:37:53.759Z,12.21
2017-02-28T12:39:03.047Z,12.12
2017-02-28T12:40:12.481Z,12.21
2017-02-28T12:41:21.484Z,12.13
2017-02-28T12:42:30.492Z,12.12
2017-02-28T12:43:39.570Z,12.28
2017-02-28T12:44:48.871Z,12.37
2017-02-28T12:45:58.284Z,12.28
2017-02-28T12:47:07.285Z,12.34
2017-02-28T12:48:16.277Z,12.41
2017-02-28T12:49:25.265Z,12.45
2017-02-28T12:50:34.640Z,12.54
2017-02-28T12:51:44.059Z,12.7
2017-02-28T12:52:53.058Z,12.79
2017-02-28T12:54:02.133Z,12.87
2017-02-28T12:55:11.118Z,12.89
2017-02-28T12:56:20.398Z,12.83
2017-02-28T12:57:29.410Z,12.82
2017-02-28T12:58:38.404Z,12.79
2017-02-28T12:59:47.393Z,12.86
2017-02-28T13:00:56.371Z,12.82
2017-02-28T13:02:05.660Z,12.86
2017-02-28T13:03:14.641Z,12.77
2017-02-28T13:04:23.637Z,12.82
2017-02-28T13:05:32.617Z,12.7
2017-02-28T13:06:41.602Z,12.7
2017-02-28T13:07:50.891Z,12.74
2017-02-28T13:08:59.961Z,12.82
2017-02-28T13:10:09.028Z,12.68
2017-02-28T13:11:18.004Z,12.7
2017-02-28T13:12:27.001Z,12.82
2017-02-28T13:13:36.298Z,12.75
2017-02-28T13:14:45.278Z,12.74
2017-02-28T13:15:54.357Z,12.71
2017-02-28T13:17:03.338Z,12.79
2017-02-28T13:18:12.331Z,12.78
2017-02-28T13:19:21.590Z,12.77
2017-02-28T13:20:30.662Z,12.82
2017-02-28T13:21:39.639Z,12.86
2017-02-28T13:22:48.633Z,12.79
2017-02-28T13:23:57.628Z,12.83
2017-02-28T13:25:06.915Z,12.68
2017-02-28T13:26:15.905Z,12.74
2017-02-28T13:27:24.933Z,12.74
2017-02-28T13:28:33.923Z,12.74
2017-02-28T13:29:42.910Z,12.71
2017-02-28T13:30:52.158Z,12.7
2017-02-28T13:32:01.221Z,12.78
2017-02-28T13:33:10.204Z,12.71
2017-02-28T13:34:19.213Z,12.74
2017-02-28T13:35:28.211Z,12.85
2017-02-28T13:36:37.500Z,12.86
2017-02-28T13:37:46.517Z,12.9
2017-02-28T13:38:55.514Z,12.82
2017-02-28T13:40:04.502Z,12.86
2017-02-28T13:41:13.484Z,12.82
2017-02-28T13:42:22.776Z,12.74
2017-02-28T13:43:31.774Z,12.82
2017-02-28T13:44:40.840Z,12.83
2017-02-28T13:45:49.829Z,12.9
2017-02-28T13:46:59.227Z,12.86
2017-02-28T13:48:08.543Z,12.86
2017-02-28T13:49:17.536Z,12.87
2017-02-28T13:50:26.527Z,12.9
2017-02-28T13:51:35.629Z,12.83
2017-02-28T13:52:44.632Z,12.86
2017-02-28T13:53:54.016Z,12.77
2017-02-28T13:55:03.025Z,12.72
2017-02-28T13:56:12.011Z,12.65
2017-02-28T13:57:21.091Z,12.72
2017-02-28T13:58:30.076Z,12.65
2017-02-28T13:59:39.363Z,12.75
2017-02-28T14:00:48.371Z,12.9
2017-02-28T14:01:57.380Z,12.86
2017-02-28T14:03:06.877Z,12.96
2017-02-28T14:04:15.863Z,13.08
2017-02-28T14:05:25.147Z,13.12
2017-02-28T14:06:34.129Z,13.07
2017-02-28T14:07:43.219Z,13.08
2017-02-28T14:08:52.197Z,13.04
2017-02-28T14:10:01.198Z,13.12
2017-02-28T14:11:10.438Z,13.05
2017-02-28T14:12:19.430Z,13.04
2017-02-28T14:13:28.409Z,13.12
2017-02-28T14:14:37.433Z,13.12
2017-02-28T14:15:46.420Z,13.08
2017-02-28T14:16:55.646Z,13.15
2017-02-28T14:18:04.663Z,13.11
2017-02-28T14:19:13.658Z,13.1
2017-02-28T14:20:23.048Z,13.12
2017-02-28T14:21:32.130Z,13.14
2017-02-28T14:22:41.419Z,13.1
2017-02-28T14:23:50.400Z,13.15
2017-02-28T14:24:59.380Z,13.12
2017-02-28T14:26:08.787Z,13.08
2017-02-28T14:27:17.874Z,13.08
2017-02-28T14:28:27.121Z,13.1
2017-02-28T14:29:36.182Z,13.11
2017-02-28T14:30:45.575Z,13.03
2017-02-28T14:31:54.569Z,12.96
2017-02-28T14:33:03.545Z,12.95
2017-02-28T14:34:12.841Z,12.87
2017-02-28T14:35:21.829Z,12.86
2017-02-28T14:36:30.811Z,12.86
2017-02-28T14:37:39.799Z,12.85
2017-02-28T14:38:48.788Z,12.72
2017-02-28T14:39:58.039Z,12.71
2017-02-28T14:41:07.032Z,12.72
2017-02-28T14:42:16.013Z,12.7
2017-02-28T14:43:25.034Z,12.7
2017-02-28T14:44:34.022Z,12.68
2017-02-28T14:45:43.323Z,12.68
2017-02-28T14:46:52.322Z,12.59
2017-02-28T14:48:01.399Z,12.56
2017-02-28T14:49:10.386Z,12.57
2017-02-28T14:50:19.381Z,12.6
2017-02-28T14:51:28.614Z,12.53
2017-02-28T14:52:37.609Z,12.47
2017-02-28T14:53:46.692Z,12.49
2017-02-28T14:54:55.776Z,12.45
2017-02-28T14:56:04.838Z,12.42
2017-02-28T14:57:14.114Z,12.41